sensor_id;sensor_type;location;lat;lon;timestamp;P1;durP1;ratioP1;P2;durP2;ratioP2
9665;SDS011;4871;52.004;5.924;2023-06-10T00:00:00;9.10;;;8.20;;
9665;SDS011;4871;52.004;5.924;2023-06-10T00:01:02;9.10;;;8.20;;
9665;SDS011;4871;52.004;5.924;2023-06-10T00:02:00;9.10;;;8.20;;
9665;SDS011;4871;52.004;5.924;2023-06-10T00:03:01;9.10;;;8.20;;
9665;SDS011;4871;52.004;5.924;2023-06-10T00:04:00;9.10;;;8.20;;
9665;SDS011;4871;52.004;5.924;2023-06-10T00:05:01;9.10;;;8.20;;
9665;SDS011;4871;52.004;5.924;2023-06-10T00:06:00;9.10;;;8.20;;
9665;SDS011;4871;52.004;5.924;2023-06-10T00:07:01;9.10;;;8.20;;
9665;SDS011;4871;52.004;5.924;2023-06-10T00:08:01;9.10;;;8.20;;
9665;SDS011;4871;52.004;5.924;2023-06-10T00:09:01;9.10;;;8.20;;
9665;SDS011;4871;52.004;5.924;2023-06-10T00:10:05;9.10;;;8.20;;
9665;SDS011;4871;52.004;5.924;2023-06-10T00:11:00;9.10;;;8.20;;
9665;SDS011;4871;52.004;5.924;2023-06-10T00:12:02;9.10;;;8.20;;
9665;SDS011;4871;52.004;5.924;2023-06-10T00:13:01;9.10;;;8.20;;
9665;SDS011;4871;52.004;5.924;2023-06-10T00:14:01;9.10;;;8.20;;
9665;SDS011;4871;52.004;5.924;2023-06-10T00:15:00;9.10;;;8.20;;
9665;SDS011;4871;52.004;5.924;2023-06-10T00:16:01;9.10;;;8.20;;
9665;SDS011;4871;52.004;5.924;2023-06-10T00:17:00;9.10;;;8.20;;
9665;SDS011;4871;52.004;5.924;2023-06-10T00:18:03;9.10;;;8.20;;
9665;SDS011;4871;52.004;5.924;2023-06-10T00:19:01;9.10;;;8.20;;
9665;SDS011;4871;52.004;5.924;2023-06-10T00:20:09;8.50;;;7.90;;
9665;SDS011;4871;52.004;5.924;2023-06-10T00:21:04;8.50;;;7.90;;
9665;SDS011;4871;52.004;5.924;2023-06-10T00:22:00;8.50;;;7.90;;
9665;SDS011;4871;52.004;5.924;2023-06-10T00:23:02;8.50;;;7.90;;
9665;SDS011;4871;52.004;5.924;2023-06-10T00:24:03;8.50;;;7.90;;
9665;SDS011;4871;52.004;5.924;2023-06-10T00:25:00;8.50;;;7.90;;
9665;SDS011;4871;52.004;5.924;2023-06-10T00:26:02;8.50;;;7.90;;
9665;SDS011;4871;52.004;5.924;2023-06-10T00:27:00;8.50;;;7.90;;
9665;SDS011;4871;52.004;5.924;2023-06-10T00:28:02;8.50;;;7.90;;
9665;SDS011;4871;52.004;5.924;2023-06-10T00:29:00;8.50;;;7.90;;
9665;SDS011;4871;52.004;5.924;2023-06-10T00:30:05;8.50;;;7.90;;
9665;SDS011;4871;52.004;5.924;2023-06-10T00:31:00;8.50;;;7.90;;
9665;SDS011;4871;52.004;5.924;2023-06-10T00:32:00;8.50;;;7.90;;
9665;SDS011;4871;52.004;5.924;2023-06-10T00:33:02;8.50;;;7.90;;
9665;SDS011;4871;52.004;5.924;2023-06-10T00:34:00;8.50;;;7.90;;
9665;SDS011;4871;52.004;5.924;2023-06-10T00:35:04;8.50;;;7.90;;
9665;SDS011;4871;52.004;5.924;2023-06-10T00:36:00;8.50;;;7.90;;
9665;SDS011;4871;52.004;5.924;2023-06-10T00:37:00;8.50;;;7.90;;
9665;SDS011;4871;52.004;5.924;2023-06-10T00:38:03;8.50;;;7.90;;
9665;SDS011;4871;52.004;5.924;2023-06-10T00:39:00;8.50;;;7.90;;
9665;SDS011;4871;52.004;5.924;2023-06-10T00:40:00;8.50;;;7.90;;
9665;SDS011;4871;52.004;5.924;2023-06-10T00:41:02;8.50;;;7.90;;
9665;SDS011;4871;52.004;5.924;2023-06-10T00:42:00;8.50;;;7.90;;
9665;SDS011;4871;52.004;5.924;2023-06-10T00:43:02;8.50;;;7.90;;
9665;SDS011;4871;52.004;5.924;2023-06-10T00:44:00;8.50;;;7.90;;
9665;SDS011;4871;52.004;5.924;2023-06-10T00:45:00;8.50;;;7.90;;
9665;SDS011;4871;52.004;5.924;2023-06-10T00:46:01;8.50;;;7.90;;
9665;SDS011;4871;52.004;5.924;2023-06-10T00:47:00;8.50;;;7.90;;
9665;SDS011;4871;52.004;5.924;2023-06-10T00:48:01;8.50;;;7.90;;
9665;SDS011;4871;52.004;5.924;2023-06-10T00:49:00;8.50;;;7.90;;
9665;SDS011;4871;52.004;5.924;2023-06-10T00:50:03;9.10;;;7.90;;
9665;SDS011;4871;52.004;5.924;2023-06-10T00:51:00;9.10;;;7.90;;
9665;SDS011;4871;52.004;5.924;2023-06-10T00:52:00;9.10;;;7.90;;
9665;SDS011;4871;52.004;5.924;2023-06-10T00:53:03;9.10;;;7.90;;
9665;SDS011;4871;52.004;5.924;2023-06-10T00:54:00;9.10;;;7.90;;
9665;SDS011;4871;52.004;5.924;2023-06-10T00:55:04;9.10;;;7.90;;
9665;SDS011;4871;52.004;5.924;2023-06-10T00:56:00;9.10;;;7.90;;
9665;SDS011;4871;52.004;5.924;2023-06-10T00:57:03;9.10;;;7.90;;
9665;SDS011;4871;52.004;5.924;2023-06-10T00:58:00;9.10;;;7.90;;
9665;SDS011;4871;52.004;5.924;2023-06-10T00:59:02;9.10;;;7.90;;
9665;SDS011;4871;52.004;5.924;2023-06-10T01:00:00;9.10;;;7.90;;
9665;SDS011;4871;52.004;5.924;2023-06-10T01:01:03;9.10;;;7.90;;
9665;SDS011;4871;52.004;5.924;2023-06-10T01:02:03;9.10;;;7.90;;
9665;SDS011;4871;52.004;5.924;2023-06-10T01:03:07;9.10;;;7.90;;
9665;SDS011;4871;52.004;5.924;2023-06-10T01:04:00;9.10;;;7.90;;
9665;SDS011;4871;52.004;5.924;2023-06-10T01:05:03;9.10;;;7.90;;
9665;SDS011;4871;52.004;5.924;2023-06-10T01:06:04;9.10;;;7.90;;
9665;SDS011;4871;52.004;5.924;2023-06-10T01:07:05;9.10;;;7.90;;
9665;SDS011;4871;52.004;5.924;2023-06-10T01:08:01;9.10;;;7.90;;
9665;SDS011;4871;52.004;5.924;2023-06-10T01:09:03;9.10;;;7.90;;
9665;SDS011;4871;52.004;5.924;2023-06-10T01:10:01;9.10;;;7.90;;
9665;SDS011;4871;52.004;5.924;2023-06-10T01:11:03;9.10;;;7.90;;
9665;SDS011;4871;52.004;5.924;2023-06-10T01:12:01;9.10;;;7.90;;
9665;SDS011;4871;52.004;5.924;2023-06-10T01:13:03;9.10;;;7.90;;
9665;SDS011;4871;52.004;5.924;2023-06-10T01:14:00;9.10;;;7.90;;
9665;SDS011;4871;52.004;5.924;2023-06-10T01:15:00;9.10;;;7.90;;
9665;SDS011;4871;52.004;5.924;2023-06-10T01:16:02;9.10;;;7.90;;
9665;SDS011;4871;52.004;5.924;2023-06-10T01:17:00;9.10;;;7.90;;
9665;SDS011;4871;52.004;5.924;2023-06-10T01:18:04;9.10;;;7.90;;
9665;SDS011;4871;52.004;5.924;2023-06-10T01:19:00;9.10;;;7.90;;
9665;SDS011;4871;52.004;5.924;2023-06-10T01:20:11;8.10;;;7.50;;
9665;SDS011;4871;52.004;5.924;2023-06-10T01:21:00;8.10;;;7.50;;
9665;SDS011;4871;52.004;5.924;2023-06-10T01:22:02;8.10;;;7.50;;
9665;SDS011;4871;52.004;5.924;2023-06-10T01:23:00;8.10;;;7.50;;
9665;SDS011;4871;52.004;5.924;2023-06-10T01:24:00;8.10;;;7.50;;
9665;SDS011;4871;52.004;5.924;2023-06-10T01:25:03;8.10;;;7.50;;
9665;SDS011;4871;52.004;5.924;2023-06-10T01:26:00;8.10;;;7.50;;
9665;SDS011;4871;52.004;5.924;2023-06-10T01:27:05;8.10;;;7.50;;
9665;SDS011;4871;52.004;5.924;2023-06-10T01:28:03;8.10;;;7.50;;
9665;SDS011;4871;52.004;5.924;2023-06-10T01:29:02;8.10;;;7.50;;
9665;SDS011;4871;52.004;5.924;2023-06-10T01:30:04;8.10;;;7.50;;
9665;SDS011;4871;52.004;5.924;2023-06-10T01:31:02;8.10;;;7.50;;
9665;SDS011;4871;52.004;5.924;2023-06-10T01:32:04;8.10;;;7.50;;
9665;SDS011;4871;52.004;5.924;2023-06-10T01:33:00;8.10;;;7.50;;
9665;SDS011;4871;52.004;5.924;2023-06-10T01:34:00;8.10;;;7.50;;
9665;SDS011;4871;52.004;5.924;2023-06-10T01:35:01;8.10;;;7.50;;
9665;SDS011;4871;52.004;5.924;2023-06-10T01:36:03;8.10;;;7.50;;
9665;SDS011;4871;52.004;5.924;2023-06-10T01:37:00;8.10;;;7.50;;
9665;SDS011;4871;52.004;5.924;2023-06-10T01:38:03;8.10;;;7.50;;
9665;SDS011;4871;52.004;5.924;2023-06-10T01:39:00;8.10;;;7.50;;
9665;SDS011;4871;52.004;5.924;2023-06-10T01:40:00;8.10;;;7.50;;
9665;SDS011;4871;52.004;5.924;2023-06-10T01:41:03;8.10;;;7.50;;
9665;SDS011;4871;52.004;5.924;2023-06-10T01:42:00;8.10;;;7.50;;
9665;SDS011;4871;52.004;5.924;2023-06-10T01:43:04;8.10;;;7.50;;
9665;SDS011;4871;52.004;5.924;2023-06-10T01:44:00;8.10;;;7.50;;
9665;SDS011;4871;52.004;5.924;2023-06-10T01:45:00;8.10;;;7.50;;
9665;SDS011;4871;52.004;5.924;2023-06-10T01:46:03;8.10;;;7.50;;
9665;SDS011;4871;52.004;5.924;2023-06-10T01:47:00;8.10;;;7.50;;
9665;SDS011;4871;52.004;5.924;2023-06-10T01:48:04;8.10;;;7.50;;
9665;SDS011;4871;52.004;5.924;2023-06-10T01:49:00;8.10;;;7.50;;
9665;SDS011;4871;52.004;5.924;2023-06-10T01:50:04;8.00;;;7.30;;
9665;SDS011;4871;52.004;5.924;2023-06-10T01:51:00;8.00;;;7.30;;
9665;SDS011;4871;52.004;5.924;2023-06-10T01:52:00;8.00;;;7.30;;
9665;SDS011;4871;52.004;5.924;2023-06-10T01:53:03;8.00;;;7.30;;
9665;SDS011;4871;52.004;5.924;2023-06-10T01:54:00;8.00;;;7.30;;
9665;SDS011;4871;52.004;5.924;2023-06-10T01:55:04;8.00;;;7.30;;
9665;SDS011;4871;52.004;5.924;2023-06-10T01:56:00;8.00;;;7.30;;
9665;SDS011;4871;52.004;5.924;2023-06-10T01:57:03;8.00;;;7.30;;
9665;SDS011;4871;52.004;5.924;2023-06-10T01:58:00;8.00;;;7.30;;
9665;SDS011;4871;52.004;5.924;2023-06-10T01:59:03;8.00;;;7.30;;
9665;SDS011;4871;52.004;5.924;2023-06-10T02:00:00;8.00;;;7.30;;
9665;SDS011;4871;52.004;5.924;2023-06-10T02:01:00;8.00;;;7.30;;
9665;SDS011;4871;52.004;5.924;2023-06-10T02:02:03;8.00;;;7.30;;
9665;SDS011;4871;52.004;5.924;2023-06-10T02:03:00;8.00;;;7.30;;
9665;SDS011;4871;52.004;5.924;2023-06-10T02:04:03;8.00;;;7.30;;
9665;SDS011;4871;52.004;5.924;2023-06-10T02:05:00;8.00;;;7.30;;
9665;SDS011;4871;52.004;5.924;2023-06-10T02:06:00;8.00;;;7.30;;
9665;SDS011;4871;52.004;5.924;2023-06-10T02:07:03;8.00;;;7.30;;
9665;SDS011;4871;52.004;5.924;2023-06-10T02:08:00;8.00;;;7.30;;
9665;SDS011;4871;52.004;5.924;2023-06-10T02:09:04;8.00;;;7.30;;
9665;SDS011;4871;52.004;5.924;2023-06-10T02:10:00;8.00;;;7.30;;
9665;SDS011;4871;52.004;5.924;2023-06-10T02:11:03;8.00;;;7.30;;
9665;SDS011;4871;52.004;5.924;2023-06-10T02:12:00;8.00;;;7.30;;
9665;SDS011;4871;52.004;5.924;2023-06-10T02:13:02;8.00;;;7.30;;
9665;SDS011;4871;52.004;5.924;2023-06-10T02:14:00;8.00;;;7.30;;
9665;SDS011;4871;52.004;5.924;2023-06-10T02:15:05;8.00;;;7.30;;
9665;SDS011;4871;52.004;5.924;2023-06-10T02:16:00;8.00;;;7.30;;
9665;SDS011;4871;52.004;5.924;2023-06-10T02:17:00;8.00;;;7.30;;
9665;SDS011;4871;52.004;5.924;2023-06-10T02:18:03;8.00;;;7.30;;
9665;SDS011;4871;52.004;5.924;2023-06-10T02:19:00;8.00;;;7.30;;
9665;SDS011;4871;52.004;5.924;2023-06-10T02:20:07;8.20;;;7.50;;
9665;SDS011;4871;52.004;5.924;2023-06-10T02:21:00;8.20;;;7.50;;
9665;SDS011;4871;52.004;5.924;2023-06-10T02:22:03;8.20;;;7.50;;
9665;SDS011;4871;52.004;5.924;2023-06-10T02:23:00;8.20;;;7.50;;
9665;SDS011;4871;52.004;5.924;2023-06-10T02:24:04;8.20;;;7.50;;
9665;SDS011;4871;52.004;5.924;2023-06-10T02:25:00;8.20;;;7.50;;
9665;SDS011;4871;52.004;5.924;2023-06-10T02:26:03;8.20;;;7.50;;
9665;SDS011;4871;52.004;5.924;2023-06-10T02:27:00;8.20;;;7.50;;
9665;SDS011;4871;52.004;5.924;2023-06-10T02:28:03;8.20;;;7.50;;
9665;SDS011;4871;52.004;5.924;2023-06-10T02:29:00;8.20;;;7.50;;
9665;SDS011;4871;52.004;5.924;2023-06-10T02:30:04;8.20;;;7.50;;
9665;SDS011;4871;52.004;5.924;2023-06-10T02:31:00;8.20;;;7.50;;
9665;SDS011;4871;52.004;5.924;2023-06-10T02:32:00;8.20;;;7.50;;
9665;SDS011;4871;52.004;5.924;2023-06-10T02:33:05;8.20;;;7.50;;
9665;SDS011;4871;52.004;5.924;2023-06-10T02:34:00;8.20;;;7.50;;
9665;SDS011;4871;52.004;5.924;2023-06-10T02:35:04;8.20;;;7.50;;
9665;SDS011;4871;52.004;5.924;2023-06-10T02:36:00;8.20;;;7.50;;
9665;SDS011;4871;52.004;5.924;2023-06-10T02:37:03;8.20;;;7.50;;
9665;SDS011;4871;52.004;5.924;2023-06-10T02:38:00;8.20;;;7.50;;
9665;SDS011;4871;52.004;5.924;2023-06-10T02:39:04;8.20;;;7.50;;
9665;SDS011;4871;52.004;5.924;2023-06-10T02:40:00;8.20;;;7.50;;
9665;SDS011;4871;52.004;5.924;2023-06-10T02:41:03;8.20;;;7.50;;
9665;SDS011;4871;52.004;5.924;2023-06-10T02:42:00;8.20;;;7.50;;
9665;SDS011;4871;52.004;5.924;2023-06-10T02:43:04;8.20;;;7.50;;
9665;SDS011;4871;52.004;5.924;2023-06-10T02:44:00;8.20;;;7.50;;
9665;SDS011;4871;52.004;5.924;2023-06-10T02:45:00;8.20;;;7.50;;
9665;SDS011;4871;52.004;5.924;2023-06-10T02:46:04;8.20;;;7.50;;
9665;SDS011;4871;52.004;5.924;2023-06-10T02:47:00;8.20;;;7.50;;
9665;SDS011;4871;52.004;5.924;2023-06-10T02:48:04;8.20;;;7.50;;
9665;SDS011;4871;52.004;5.924;2023-06-10T02:49:01;8.20;;;7.50;;
9665;SDS011;4871;52.004;5.924;2023-06-10T02:50:03;8.30;;;7.60;;
9665;SDS011;4871;52.004;5.924;2023-06-10T02:51:00;8.30;;;7.60;;
9665;SDS011;4871;52.004;5.924;2023-06-10T02:52:04;8.30;;;7.60;;
9665;SDS011;4871;52.004;5.924;2023-06-10T02:53:00;8.30;;;7.60;;
9665;SDS011;4871;52.004;5.924;2023-06-10T02:54:03;8.30;;;7.60;;
9665;SDS011;4871;52.004;5.924;2023-06-10T02:55:00;8.30;;;7.60;;
9665;SDS011;4871;52.004;5.924;2023-06-10T02:56:03;8.30;;;7.60;;
9665;SDS011;4871;52.004;5.924;2023-06-10T02:57:00;8.30;;;7.60;;
9665;SDS011;4871;52.004;5.924;2023-06-10T02:58:00;8.30;;;7.60;;
9665;SDS011;4871;52.004;5.924;2023-06-10T02:59:03;8.30;;;7.60;;
9665;SDS011;4871;52.004;5.924;2023-06-10T03:00:01;8.30;;;7.60;;
9665;SDS011;4871;52.004;5.924;2023-06-10T03:01:03;8.30;;;7.60;;
9665;SDS011;4871;52.004;5.924;2023-06-10T03:02:01;8.30;;;7.60;;
9665;SDS011;4871;52.004;5.924;2023-06-10T03:03:05;8.30;;;7.60;;
9665;SDS011;4871;52.004;5.924;2023-06-10T03:04:00;8.30;;;7.60;;
9665;SDS011;4871;52.004;5.924;2023-06-10T03:05:02;8.30;;;7.60;;
9665;SDS011;4871;52.004;5.924;2023-06-10T03:06:00;8.30;;;7.60;;
9665;SDS011;4871;52.004;5.924;2023-06-10T03:07:03;8.30;;;7.60;;
9665;SDS011;4871;52.004;5.924;2023-06-10T03:08:00;8.30;;;7.60;;
9665;SDS011;4871;52.004;5.924;2023-06-10T03:09:04;8.30;;;7.60;;
9665;SDS011;4871;52.004;5.924;2023-06-10T03:10:00;8.30;;;7.60;;
9665;SDS011;4871;52.004;5.924;2023-06-10T03:11:04;8.30;;;7.60;;
9665;SDS011;4871;52.004;5.924;2023-06-10T03:12:00;8.30;;;7.60;;
9665;SDS011;4871;52.004;5.924;2023-06-10T03:13:03;8.30;;;7.60;;
9665;SDS011;4871;52.004;5.924;2023-06-10T03:14:00;8.30;;;7.60;;
9665;SDS011;4871;52.004;5.924;2023-06-10T03:15:05;8.30;;;7.60;;
9665;SDS011;4871;52.004;5.924;2023-06-10T03:16:00;8.30;;;7.60;;
9665;SDS011;4871;52.004;5.924;2023-06-10T03:17:00;8.30;;;7.60;;
9665;SDS011;4871;52.004;5.924;2023-06-10T03:18:03;8.30;;;7.60;;
9665;SDS011;4871;52.004;5.924;2023-06-10T03:19:00;8.30;;;7.60;;
9665;SDS011;4871;52.004;5.924;2023-06-10T03:20:06;8.50;;;7.70;;
9665;SDS011;4871;52.004;5.924;2023-06-10T03:21:00;8.50;;;7.70;;
9665;SDS011;4871;52.004;5.924;2023-06-10T03:22:10;8.50;;;7.70;;
9665;SDS011;4871;52.004;5.924;2023-06-10T03:23:00;8.50;;;7.70;;
9665;SDS011;4871;52.004;5.924;2023-06-10T03:24:03;8.50;;;7.70;;
9665;SDS011;4871;52.004;5.924;2023-06-10T03:25:00;8.50;;;7.70;;
9665;SDS011;4871;52.004;5.924;2023-06-10T03:26:04;8.50;;;7.70;;
9665;SDS011;4871;52.004;5.924;2023-06-10T03:27:00;8.50;;;7.70;;
9665;SDS011;4871;52.004;5.924;2023-06-10T03:28:04;8.50;;;7.70;;
9665;SDS011;4871;52.004;5.924;2023-06-10T03:29:00;8.50;;;7.70;;
9665;SDS011;4871;52.004;5.924;2023-06-10T03:30:03;8.50;;;7.70;;
9665;SDS011;4871;52.004;5.924;2023-06-10T03:31:00;8.50;;;7.70;;
9665;SDS011;4871;52.004;5.924;2023-06-10T03:32:04;8.50;;;7.70;;
9665;SDS011;4871;52.004;5.924;2023-06-10T03:33:00;8.50;;;7.70;;
9665;SDS011;4871;52.004;5.924;2023-06-10T03:34:02;8.50;;;7.70;;
9665;SDS011;4871;52.004;5.924;2023-06-10T03:35:00;8.50;;;7.70;;
9665;SDS011;4871;52.004;5.924;2023-06-10T03:36:04;8.50;;;7.70;;
9665;SDS011;4871;52.004;5.924;2023-06-10T03:37:00;8.50;;;7.70;;
9665;SDS011;4871;52.004;5.924;2023-06-10T03:38:03;8.50;;;7.70;;
9665;SDS011;4871;52.004;5.924;2023-06-10T03:39:00;8.50;;;7.70;;
9665;SDS011;4871;52.004;5.924;2023-06-10T03:40:04;8.50;;;7.70;;
9665;SDS011;4871;52.004;5.924;2023-06-10T03:41:00;8.50;;;7.70;;
9665;SDS011;4871;52.004;5.924;2023-06-10T03:42:03;8.50;;;7.70;;
9665;SDS011;4871;52.004;5.924;2023-06-10T03:43:00;8.50;;;7.70;;
9665;SDS011;4871;52.004;5.924;2023-06-10T03:44:04;8.50;;;7.70;;
9665;SDS011;4871;52.004;5.924;2023-06-10T03:45:00;8.50;;;7.70;;
9665;SDS011;4871;52.004;5.924;2023-06-10T03:46:02;8.50;;;7.70;;
9665;SDS011;4871;52.004;5.924;2023-06-10T03:47:00;8.50;;;7.70;;
9665;SDS011;4871;52.004;5.924;2023-06-10T03:48:04;8.50;;;7.70;;
9665;SDS011;4871;52.004;5.924;2023-06-10T03:49:01;8.50;;;7.70;;
9665;SDS011;4871;52.004;5.924;2023-06-10T03:50:00;8.60;;;7.30;;
9665;SDS011;4871;52.004;5.924;2023-06-10T03:51:02;8.60;;;7.30;;
9665;SDS011;4871;52.004;5.924;2023-06-10T03:52:00;8.60;;;7.30;;
9665;SDS011;4871;52.004;5.924;2023-06-10T03:53:03;8.60;;;7.30;;
9665;SDS011;4871;52.004;5.924;2023-06-10T03:54:00;8.60;;;7.30;;
9665;SDS011;4871;52.004;5.924;2023-06-10T03:55:04;8.60;;;7.30;;
9665;SDS011;4871;52.004;5.924;2023-06-10T03:56:00;8.60;;;7.30;;
9665;SDS011;4871;52.004;5.924;2023-06-10T03:57:03;8.60;;;7.30;;
9665;SDS011;4871;52.004;5.924;2023-06-10T03:58:00;8.60;;;7.30;;
9665;SDS011;4871;52.004;5.924;2023-06-10T03:59:03;8.60;;;7.30;;
9665;SDS011;4871;52.004;5.924;2023-06-10T04:00:00;8.60;;;7.30;;
9665;SDS011;4871;52.004;5.924;2023-06-10T04:01:07;8.60;;;7.30;;
9665;SDS011;4871;52.004;5.924;2023-06-10T04:02:00;8.60;;;7.30;;
9665;SDS011;4871;52.004;5.924;2023-06-10T04:03:09;8.60;;;7.30;;
9665;SDS011;4871;52.004;5.924;2023-06-10T04:04:01;8.60;;;7.30;;
9665;SDS011;4871;52.004;5.924;2023-06-10T04:05:04;8.60;;;7.30;;
9665;SDS011;4871;52.004;5.924;2023-06-10T04:06:00;8.60;;;7.30;;
9665;SDS011;4871;52.004;5.924;2023-06-10T04:07:03;8.60;;;7.30;;
9665;SDS011;4871;52.004;5.924;2023-06-10T04:08:01;8.60;;;7.30;;
9665;SDS011;4871;52.004;5.924;2023-06-10T04:09:03;8.60;;;7.30;;
9665;SDS011;4871;52.004;5.924;2023-06-10T04:10:00;8.60;;;7.30;;
9665;SDS011;4871;52.004;5.924;2023-06-10T04:11:00;8.60;;;7.30;;
9665;SDS011;4871;52.004;5.924;2023-06-10T04:12:06;8.60;;;7.30;;
9665;SDS011;4871;52.004;5.924;2023-06-10T04:13:00;8.60;;;7.30;;
9665;SDS011;4871;52.004;5.924;2023-06-10T04:14:00;8.60;;;7.30;;
9665;SDS011;4871;52.004;5.924;2023-06-10T04:15:03;8.60;;;7.30;;
9665;SDS011;4871;52.004;5.924;2023-06-10T04:16:00;8.60;;;7.30;;
9665;SDS011;4871;52.004;5.924;2023-06-10T04:17:06;8.60;;;7.30;;
9665;SDS011;4871;52.004;5.924;2023-06-10T04:18:01;8.60;;;7.30;;
9665;SDS011;4871;52.004;5.924;2023-06-10T04:19:04;8.60;;;7.30;;
9665;SDS011;4871;52.004;5.924;2023-06-10T04:20:00;7.70;;;7.00;;
9665;SDS011;4871;52.004;5.924;2023-06-10T04:21:00;7.70;;;7.00;;
9665;SDS011;4871;52.004;5.924;2023-06-10T04:22:04;7.70;;;7.00;;
9665;SDS011;4871;52.004;5.924;2023-06-10T04:23:01;7.70;;;7.00;;
9665;SDS011;4871;52.004;5.924;2023-06-10T04:24:04;7.70;;;7.00;;
9665;SDS011;4871;52.004;5.924;2023-06-10T04:25:00;7.70;;;7.00;;
9665;SDS011;4871;52.004;5.924;2023-06-10T04:26:05;7.70;;;7.00;;
9665;SDS011;4871;52.004;5.924;2023-06-10T04:27:00;7.70;;;7.00;;
9665;SDS011;4871;52.004;5.924;2023-06-10T04:28:00;7.70;;;7.00;;
9665;SDS011;4871;52.004;5.924;2023-06-10T04:29:03;7.70;;;7.00;;
9665;SDS011;4871;52.004;5.924;2023-06-10T04:30:00;7.70;;;7.00;;
9665;SDS011;4871;52.004;5.924;2023-06-10T04:31:04;7.70;;;7.00;;
9665;SDS011;4871;52.004;5.924;2023-06-10T04:32:01;7.70;;;7.00;;
9665;SDS011;4871;52.004;5.924;2023-06-10T04:33:03;7.70;;;7.00;;
9665;SDS011;4871;52.004;5.924;2023-06-10T04:34:00;7.70;;;7.00;;
9665;SDS011;4871;52.004;5.924;2023-06-10T04:35:04;7.70;;;7.00;;
9665;SDS011;4871;52.004;5.924;2023-06-10T04:36:00;7.70;;;7.00;;
9665;SDS011;4871;52.004;5.924;2023-06-10T04:37:04;7.70;;;7.00;;
9665;SDS011;4871;52.004;5.924;2023-06-10T04:38:02;7.70;;;7.00;;
9665;SDS011;4871;52.004;5.924;2023-06-10T04:39:06;7.70;;;7.00;;
9665;SDS011;4871;52.004;5.924;2023-06-10T04:40:00;7.70;;;7.00;;
9665;SDS011;4871;52.004;5.924;2023-06-10T04:41:02;7.70;;;7.00;;
9665;SDS011;4871;52.004;5.924;2023-06-10T04:42:01;7.70;;;7.00;;
9665;SDS011;4871;52.004;5.924;2023-06-10T04:43:04;7.70;;;7.00;;
9665;SDS011;4871;52.004;5.924;2023-06-10T04:44:00;7.70;;;7.00;;
9665;SDS011;4871;52.004;5.924;2023-06-10T04:45:05;7.70;;;7.00;;
9665;SDS011;4871;52.004;5.924;2023-06-10T04:46:00;7.70;;;7.00;;
9665;SDS011;4871;52.004;5.924;2023-06-10T04:47:07;7.70;;;7.00;;
9665;SDS011;4871;52.004;5.924;2023-06-10T04:48:00;7.70;;;7.00;;
9665;SDS011;4871;52.004;5.924;2023-06-10T04:49:05;7.70;;;7.00;;
9665;SDS011;4871;52.004;5.924;2023-06-10T04:50:00;8.10;;;7.00;;
9665;SDS011;4871;52.004;5.924;2023-06-10T04:51:05;8.10;;;7.00;;
9665;SDS011;4871;52.004;5.924;2023-06-10T04:52:00;8.10;;;7.00;;
9665;SDS011;4871;52.004;5.924;2023-06-10T04:53:03;8.10;;;7.00;;
9665;SDS011;4871;52.004;5.924;2023-06-10T04:54:03;8.10;;;7.00;;
9665;SDS011;4871;52.004;5.924;2023-06-10T04:55:02;8.10;;;7.00;;
9665;SDS011;4871;52.004;5.924;2023-06-10T04:56:00;8.10;;;7.00;;
9665;SDS011;4871;52.004;5.924;2023-06-10T04:57:06;8.10;;;7.00;;
9665;SDS011;4871;52.004;5.924;2023-06-10T04:58:00;8.10;;;7.00;;
9665;SDS011;4871;52.004;5.924;2023-06-10T04:59:00;8.10;;;7.00;;
9665;SDS011;4871;52.004;5.924;2023-06-10T05:00:06;8.10;;;7.00;;
9665;SDS011;4871;52.004;5.924;2023-06-10T05:01:00;8.10;;;7.00;;
9665;SDS011;4871;52.004;5.924;2023-06-10T05:02:00;8.10;;;7.00;;
9665;SDS011;4871;52.004;5.924;2023-06-10T05:03:05;8.10;;;7.00;;
9665;SDS011;4871;52.004;5.924;2023-06-10T05:04:00;8.10;;;7.00;;
9665;SDS011;4871;52.004;5.924;2023-06-10T05:05:04;8.10;;;7.00;;
9665;SDS011;4871;52.004;5.924;2023-06-10T05:06:00;8.10;;;7.00;;
9665;SDS011;4871;52.004;5.924;2023-06-10T05:07:00;8.10;;;7.00;;
9665;SDS011;4871;52.004;5.924;2023-06-10T05:08:05;8.10;;;7.00;;
9665;SDS011;4871;52.004;5.924;2023-06-10T05:09:00;8.10;;;7.00;;
9665;SDS011;4871;52.004;5.924;2023-06-10T05:10:03;8.10;;;7.00;;
9665;SDS011;4871;52.004;5.924;2023-06-10T05:11:00;8.10;;;7.00;;
9665;SDS011;4871;52.004;5.924;2023-06-10T05:12:05;8.10;;;7.00;;
9665;SDS011;4871;52.004;5.924;2023-06-10T05:13:00;8.10;;;7.00;;
9665;SDS011;4871;52.004;5.924;2023-06-10T05:14:05;8.10;;;7.00;;
9665;SDS011;4871;52.004;5.924;2023-06-10T05:15:00;8.10;;;7.00;;
9665;SDS011;4871;52.004;5.924;2023-06-10T05:16:06;8.10;;;7.00;;
9665;SDS011;4871;52.004;5.924;2023-06-10T05:17:00;8.10;;;7.00;;
9665;SDS011;4871;52.004;5.924;2023-06-10T05:18:06;8.10;;;7.00;;
9665;SDS011;4871;52.004;5.924;2023-06-10T05:19:00;8.10;;;7.00;;
9665;SDS011;4871;52.004;5.924;2023-06-10T05:20:05;7.90;;;7.20;;
9665;SDS011;4871;52.004;5.924;2023-06-10T05:21:00;7.90;;;7.20;;
9665;SDS011;4871;52.004;5.924;2023-06-10T05:22:00;7.90;;;7.20;;
9665;SDS011;4871;52.004;5.924;2023-06-10T05:23:06;7.90;;;7.20;;
9665;SDS011;4871;52.004;5.924;2023-06-10T05:24:00;7.90;;;7.20;;
9665;SDS011;4871;52.004;5.924;2023-06-10T05:25:06;7.90;;;7.20;;
9665;SDS011;4871;52.004;5.924;2023-06-10T05:26:00;7.90;;;7.20;;
9665;SDS011;4871;52.004;5.924;2023-06-10T05:27:06;7.90;;;7.20;;
9665;SDS011;4871;52.004;5.924;2023-06-10T05:28:00;7.90;;;7.20;;
9665;SDS011;4871;52.004;5.924;2023-06-10T05:29:05;7.90;;;7.20;;
9665;SDS011;4871;52.004;5.924;2023-06-10T05:30:01;7.90;;;7.20;;
9665;SDS011;4871;52.004;5.924;2023-06-10T05:31:05;7.90;;;7.20;;
9665;SDS011;4871;52.004;5.924;2023-06-10T05:32:03;7.90;;;7.20;;
9665;SDS011;4871;52.004;5.924;2023-06-10T05:33:05;7.90;;;7.20;;
9665;SDS011;4871;52.004;5.924;2023-06-10T05:34:00;7.90;;;7.20;;
9665;SDS011;4871;52.004;5.924;2023-06-10T05:35:06;7.90;;;7.20;;
9665;SDS011;4871;52.004;5.924;2023-06-10T05:36:00;7.90;;;7.20;;
9665;SDS011;4871;52.004;5.924;2023-06-10T05:37:05;7.90;;;7.20;;
9665;SDS011;4871;52.004;5.924;2023-06-10T05:38:00;7.90;;;7.20;;
9665;SDS011;4871;52.004;5.924;2023-06-10T05:39:05;7.90;;;7.20;;
9665;SDS011;4871;52.004;5.924;2023-06-10T05:40:00;7.90;;;7.20;;
9665;SDS011;4871;52.004;5.924;2023-06-10T05:41:00;7.90;;;7.20;;
9665;SDS011;4871;52.004;5.924;2023-06-10T05:42:07;7.90;;;7.20;;
9665;SDS011;4871;52.004;5.924;2023-06-10T05:43:00;7.90;;;7.20;;
9665;SDS011;4871;52.004;5.924;2023-06-10T05:44:06;7.90;;;7.20;;
9665;SDS011;4871;52.004;5.924;2023-06-10T05:45:00;7.90;;;7.20;;
9665;SDS011;4871;52.004;5.924;2023-06-10T05:46:00;7.90;;;7.20;;
9665;SDS011;4871;52.004;5.924;2023-06-10T05:47:06;7.90;;;7.20;;
9665;SDS011;4871;52.004;5.924;2023-06-10T05:48:00;7.90;;;7.20;;
9665;SDS011;4871;52.004;5.924;2023-06-10T05:49:04;7.90;;;7.20;;
9665;SDS011;4871;52.004;5.924;2023-06-10T05:50:00;7.60;;;6.90;;
9665;SDS011;4871;52.004;5.924;2023-06-10T05:51:04;7.60;;;6.90;;
9665;SDS011;4871;52.004;5.924;2023-06-10T05:52:00;7.60;;;6.90;;
9665;SDS011;4871;52.004;5.924;2023-06-10T05:53:00;7.60;;;6.90;;
9665;SDS011;4871;52.004;5.924;2023-06-10T05:54:05;7.60;;;6.90;;
9665;SDS011;4871;52.004;5.924;2023-06-10T05:55:00;7.60;;;6.90;;
9665;SDS011;4871;52.004;5.924;2023-06-10T05:56:06;7.60;;;6.90;;
9665;SDS011;4871;52.004;5.924;2023-06-10T05:57:00;7.60;;;6.90;;
9665;SDS011;4871;52.004;5.924;2023-06-10T05:58:05;7.60;;;6.90;;
9665;SDS011;4871;52.004;5.924;2023-06-10T05:59:00;7.60;;;6.90;;
9665;SDS011;4871;52.004;5.924;2023-06-10T06:00:05;7.60;;;6.90;;
9665;SDS011;4871;52.004;5.924;2023-06-10T06:01:00;7.60;;;6.90;;
9665;SDS011;4871;52.004;5.924;2023-06-10T06:02:05;7.60;;;6.90;;
9665;SDS011;4871;52.004;5.924;2023-06-10T06:03:00;7.60;;;6.90;;
9665;SDS011;4871;52.004;5.924;2023-06-10T06:04:05;7.60;;;6.90;;
9665;SDS011;4871;52.004;5.924;2023-06-10T06:05:00;7.60;;;6.90;;
9665;SDS011;4871;52.004;5.924;2023-06-10T06:06:06;7.60;;;6.90;;
9665;SDS011;4871;52.004;5.924;2023-06-10T06:07:00;7.60;;;6.90;;
9665;SDS011;4871;52.004;5.924;2023-06-10T06:08:06;7.60;;;6.90;;
9665;SDS011;4871;52.004;5.924;2023-06-10T06:09:00;7.60;;;6.90;;
9665;SDS011;4871;52.004;5.924;2023-06-10T06:10:06;7.60;;;6.90;;
9665;SDS011;4871;52.004;5.924;2023-06-10T06:11:00;7.60;;;6.90;;
9665;SDS011;4871;52.004;5.924;2023-06-10T06:12:00;7.60;;;6.90;;